Time;durP1;ratioP1;P1;durP2;ratioP2;P2;SDS_P1;SDS_P2;PMS_P1;PMS_P2;Temp;Humidity;BMP_temperature;BMP_pressure;BME280_temperature;BME280_humidity;BME280_pressure;Samples;Min_cycle;Max_cycle;Signal;HPM_P1;HPM_P2
2023/09/26 00:02:21;;;;;;;;;;;;;;;26.37;52.65;99892.63;67878;1276;1016456;-65
2023/09/26 00:05:24;;;;;;;;;;;;;;;26.46;52.54;99892.84;67912;1276;1016549;-66
2023/09/26 00:08:26;;;;;;;23.40;10.30;;;;;;;26.43;52.43;99890.96;67874;1276;1018377;-65
2023/09/26 00:11:28;;;;;;;25.70;9.80;;;;;;;26.23;52.95;99893.55;67856;1276;1016451;-66
2023/09/26 00:14:31;;;;;;;;;;;;;;;26.42;52.58;99892.17;67875;1276;1016089;-64
2023/09/26 00:17:33;;;;;;;22.90;9.40;;;;;;;26.44;52.60;99888.79;67888;1276;1016469;-64
2023/09/26 00:20:38;;;;;;;;;;;;;;;26.42;52.55;99891.33;67911;1276;1016476;-65
2023/09/26 00:23:40;;;;;;;25.90;9.70;;;;;;;26.34;52.69;99891.40;67853;1276;1016200;-66
2023/09/26 00:26:43;;;;;;;;;;;;;;;26.29;52.75;99886.81;67844;1276;1016139;-64
2023/09/26 00:29:45;;;;;;;26.00;10.00;;;;;;;26.25;52.80;99884.10;67860;1276;1016366;-64
2023/09/26 00:32:48;;;;;;;;;;;;;;;26.24;52.81;99883.23;67903;1276;1016288;-66
2023/09/26 00:35:50;;;;;;;25.20;10.00;;;;;;;26.29;52.80;99884.46;67906;1276;1015918;-64
2023/09/26 00:38:52;;;;;;;;;;;;;;;26.35;52.62;99880.96;67875;1276;1016460;-63
2023/09/26 00:41:55;;;;;;;27.10;10.30;;;;;;;26.38;52.52;99876.45;67877;1276;1016571;-64
2023/09/26 00:44:57;;;;;;;;;;;;;;;26.38;52.55;99875.48;67889;1276;1016370;-66
2023/09/26 00:47:59;;;;;;;24.60;10.80;;;;;;;26.33;52.70;99869.73;67865;1276;1016295;-64
2023/09/26 00:51:02;;;;;;;;;;;;;;;26.41;52.48;99865.98;67884;1276;1016470;-64
2023/09/26 00:54:05;;;;;;;27.90;10.80;;;;;;;26.42;52.34;99864.61;67845;1276;1018173;-64
2023/09/26 00:57:07;;;;;;;23.80;10.10;;;;;;;26.29;52.62;99865.88;67867;1276;1016411;-64
2023/09/26 01:00:12;;;;;;;;;;;;;;;26.36;52.53;99859.04;67909;1276;1017567;-64
2023/09/26 01:03:16;;;;;;;27.80;11.70;;;;;;;26.39;52.34;99859.04;67847;1276;1018772;-64
2023/09/26 01:06:18;;;;;;;27.10;11.70;;;;;;;26.28;52.57;99857.64;67881;1276;1016282;-64
2023/09/26 01:09:23;;;;;;;26.30;11.20;;;;;;;26.30;52.52;99854.77;67863;1276;1016486;-64
2023/09/26 01:12:26;;;;;;;27.50;12.00;;;;;;;26.24;52.71;99853.48;67830;1276;1016176;-64
2023/09/26 01:15:28;;;;;;;27.40;11.00;;;;;;;26.23;52.70;99848.91;67891;1276;1018603;-63
2023/09/26 01:18:30;;;;;;;;;;;;;;;26.25;52.70;99854.11;67873;1276;1016517;-63
2023/09/26 01:21:33;;;;;;;25.00;10.70;;;;;;;26.30;52.60;99853.23;67858;1276;1016347;-64
2023/09/26 01:24:37;;;;;;;25.70;11.40;;;;;;;26.19;52.69;99855.27;67834;1276;1016928;-64
2023/09/26 01:27:40;;;;;;;26.00;11.30;;;;;;;26.15;52.72;99850.51;67830;1276;1016810;-65
2023/09/26 01:30:42;;;;;;;26.10;11.70;;;;;;;26.17;52.76;99855.84;67913;1276;1016438;-64
2023/09/26 01:33:44;;;;;;;27.50;11.60;;;;;;;26.31;52.63;99855.19;67871;1276;1016408;-64
2023/09/26 01:36:47;;;;;;;;;;;;;;;26.23;52.79;99860.95;67856;1276;1018695;-66
2023/09/26 01:39:49;;;;;;;27.00;12.10;;;;;;;26.38;52.56;99861.22;67854;1276;1016434;-64
2023/09/26 01:42:52;;;;;;;;;;;;;;;26.48;52.32;99862.11;67889;1276;1016318;-64
2023/09/26 01:45:54;;;;;;;27.40;11.80;;;;;;;26.49;52.22;99863.52;67881;1276;1017477;-64
2023/09/26 01:48:57;;;;;;;26.60;11.60;;;;;;;26.32;52.56;99864.42;67880;1276;1016357;-65
2023/09/26 01:51:59;;;;;;;;;;;;;;;26.33;52.57;99872.02;67879;1276;1016563;-65
2023/09/26 01:55:01;;;;;;;28.40;11.80;;;;;;;26.34;52.64;99866.34;67878;1276;1018963;-64
2023/09/26 01:58:04;;;;;;;28.50;12.00;;;;;;;26.33;52.61;99867.05;67870;1276;1016385;-64
2023/09/26 02:01:06;;;;;;;;;;;;;;;26.29;52.83;99864.75;67844;1276;1016452;-64
2023/09/26 02:04:09;;;;;;;29.80;11.20;;;;;;;26.29;52.70;99858.44;67907;1276;1015923;-65
2023/09/26 02:07:12;;;;;;;29.80;12.00;;;;;;;26.23;52.84;99861.61;67905;1276;1018577;-64
2023/09/26 02:10:14;;;;;;;28.50;12.30;;;;;;;26.18;52.94;99859.08;67866;1276;1016422;-64
2023/09/26 02:13:16;;;;;;;;;;;;;;;26.22;52.79;99858.32;67836;1276;1016100;-65
2023/09/26 02:16:19;;;;;;;28.20;12.30;;;;;;;26.27;52.61;99857.27;67873;1276;1016375;-64
2023/09/26 02:19:21;;;;;;;;;;;;;;;26.36;52.46;99857.89;67856;1276;1016639;-64
2023/09/26 02:22:23;;;;;;;30.60;12.80;;;;;;;26.39;52.33;99855.41;67829;1276;1015838;-64
2023/09/26 02:25:26;;;;;;;30.40;12.50;;;;;;;26.16;52.82;99859.37;67888;1276;1015920;-64
2023/09/26 02:28:28;;;;;;;;;;;;;;;26.25;52.68;99858.19;67876;1276;1016311;-66
2023/09/26 02:31:30;;;;;;;33.40;13.60;;;;;;;26.26;52.61;99858.28;67859;1276;1016455;-64
2023/09/26 02:34:33;;;;;;;;;;;;;;;26.33;52.62;99857.57;67870;1276;1016373;-66
2023/09/26 02:37:35;;;;;;;33.60;14.40;;;;;;;26.45;52.36;99856.13;67869;1276;1016524;-65
2023/09/26 02:40:37;;;;;;;;;;;;;;;26.47;52.38;99857.80;67885;1276;1018822;-64
2023/09/26 02:43:40;;;;;;;29.30;14.00;;;;;;;26.46;52.43;99858.05;67873;1276;1016418;-64
2023/09/26 02:46:42;;;;;;;;;;;;;;;26.44;52.39;99860.23;67848;1276;1016328;-64
2023/09/26 02:49:45;;;;;;;32.30;14.40;;;;;;;26.46;52.34;99858.05;67828;1276;1016511;-64
2023/09/26 02:52:47;;;;;;;;;;;;;;;26.44;52.44;99862.76;67877;1276;1016158;-65
2023/09/26 02:55:49;;;;;;;30.00;14.30;;;;;;;26.48;52.41;99860.56;67883;1276;1015993;-65
2023/09/26 02:58:53;;;;;;;30.20;14.70;;;;;;;26.40;52.44;99854.09;67897;1276;1016493;-65
2023/09/26 03:01:55;;;;;;;33.50;15.10;;;;;;;26.42;52.26;99855.84;67883;1276;1016932;-65
2023/09/26 03:04:57;;;;;;;;;;;;;;;26.31;52.68;99854.54;67920;1276;1016408;-64
2023/09/26 03:08:00;;;;;;;34.00;14.10;;;;;;;26.26;52.78;99850.05;67914;1276;1016159;-64
2023/09/26 03:11:03;;;;;;;;;;;;;;;26.41;52.35;99854.11;67901;1276;1016456;-64
2023/09/26 03:14:05;;;;;;;30.10;14.20;;;;;;;26.34;52.45;99851.45;67863;1276;1016284;-66
2023/09/26 03:17:08;;;;;;;32.60;15.10;;;;;;;26.28;52.65;99849.14;67882;1276;1018383;-64
2023/09/26 03:20:14;;;;;;;29.90;14.20;;;;;;;26.21;52.65;99850.45;67875;1276;1016018;-64
2023/09/26 03:23:17;;;;;;;33.40;15.10;;;;;;;26.18;52.88;99851.67;67870;1276;1017836;-64
2023/09/26 03:26:19;;;;;;;;;;;;;;;26.27;52.58;99852.33;67877;1276;1016401;-66
2023/09/26 03:29:21;;;;;;;32.00;15.70;;;;;;;26.26;52.66;99857.17;67875;1276;1018636;-64
2023/09/26 03:32:24;;;;;;;;;;;;;;;26.26;52.48;99856.30;67793;1276;1016371;-65
2023/09/26 03:35:26;;;;;;;33.40;15.20;;;;;;;26.17;52.74;99856.82;67889;1276;1016470;-65
2023/09/26 03:38:29;;;;;;;;;;;;;;;26.23;52.55;99858.26;67840;1276;1016191;-64
2023/09/26 03:41:31;;;;;;;33.70;14.80;;;;;;;26.16;52.66;99856.36;67849;1276;1018071;-65
2023/09/26 03:44:33;;;;;;;;;;;;;;;26.18;52.65;99856.17;67818;1276;1016539;-65
2023/09/26 03:47:36;;;;;;;32.00;15.50;;;;;;;26.19;52.62;99855.61;67878;1276;1016336;-65
2023/09/26 03:50:40;;;;;;;32.80;15.80;;;;;;;26.17;52.47;99852.95;67876;1276;1016500;-64
2023/09/26 03:53:42;;;;;;;33.80;16.10;;;;;;;26.14;52.55;99849.89;67896;1276;1016361;-64
2023/09/26 03:56:44;;;;;;;;;;;;;;;26.11;52.76;99849.86;67861;1276;1016434;-64
2023/09/26 03:59:47;;;;;;;31.90;15.80;;;;;;;26.22;52.55;99850.48;67849;1276;1016369;-65
2023/09/26 04:02:49;;;;;;;;;;;;;;;26.18;52.60;99851.52;67832;1276;1016394;-64
2023/09/26 04:05:51;;;;;;;32.00;15.10;;;;;;;26.10;52.52;99848.76;67873;1276;1015930;-64
2023/09/26 04:08:54;;;;;;;;;;;;;;;26.03;52.52;99850.61;67864;1276;1016465;-64
2023/09/26 04:11:56;;;;;;;33.70;15.80;;;;;;;26.07;52.53;99855.38;67882;1276;1016429;-64
2023/09/26 04:14:59;;;;;;;32.60;15.00;;;;;;;25.96;52.69;99858.49;67883;1276;1016438;-65
2023/09/26 04:18:01;;;;;;;32.20;14.90;;;;;;;25.85;53.15;99860.23;67843;1276;1016544;-64
2023/09/26 04:21:04;;;;;;;33.70;14.70;;;;;;;25.91;53.02;99859.98;67864;1276;1016580;-64
2023/09/26 04:24:06;;;;;;;34.50;15.80;;;;;;;26.04;52.87;99859.30;67908;1276;1015953;-66
2023/09/26 04:27:09;;;;;;;;;;;;;;;26.05;52.92;99859.30;67897;1276;1016506;-64
2023/09/26 04:30:12;;;;;;;33.30;15.50;;;;;;;26.09;52.85;99856.89;67878;1276;1016160;-64
2023/09/26 04:33:14;;;;;;;38.20;15.50;;;;;;;26.03;52.97;99857.09;67873;1276;1016459;-66
2023/09/26 04:36:16;;;;;;;33.10;15.70;;;;;;;25.99;53.13;99858.77;67894;1276;1016217;-66
2023/09/26 04:39:19;;;;;;;;;;;;;;;26.07;53.07;99860.34;67889;1276;1016349;-64
2023/09/26 04:42:21;;;;;;;31.20;14.80;;;;;;;26.19;52.65;99864.59;67838;1276;1016549;-65
2023/09/26 04:45:24;;;;;;;;;;;;;;;26.11;52.72;99864.77;67844;1276;1016083;-64
2023/09/26 04:48:26;;;;;;;34.80;16.50;;;;;;;25.93;53.06;99864.54;67855;1276;1016314;-64
2023/09/26 04:51:28;;;;;;;35.60;15.90;;;;;;;25.95;52.91;99862.92;67884;1276;1016256;-64
2023/09/26 04:54:31;;;;;;;;;;;;;;;25.94;52.92;99863.05;67906;1276;1018750;-64
2023/09/26 04:57:33;;;;;;;36.20;15.40;;;;;;;26.00;52.84;99860.08;67869;1276;1016763;-64
2023/09/26 05:00:36;;;;;;;35.30;15.80;;;;;;;25.95;52.95;99864.56;67864;1276;1016432;-67
2023/09/26 05:03:38;;;;;;;34.80;15.80;;;;;;;26.08;52.68;99859.59;67836;1276;1016218;-64
2023/09/26 05:06:41;;;;;;;33.80;14.80;;;;;;;26.26;52.12;99857.54;67903;1276;1016255;-64
2023/09/26 05:09:43;;;;;;;;;;;;;;;26.34;51.95;99853.60;67856;1276;1016482;-64
2023/09/26 05:12:46;;;;;;;34.50;15.30;;;;;;;26.40;52.02;99856.25;67859;1276;1016445;-65
2023/09/26 05:15:48;;;;;;;;;;;;;;;26.32;52.25;99857.80;67858;1276;1018876;-64
2023/09/26 05:18:51;;;;;;;;;;;;;;;26.36;52.03;99858.23;67878;1276;1016484;-65
2023/09/26 05:21:53;;;;;;;33.50;15.10;;;;;;;26.31;52.26;99857.44;67875;1276;1016850;-64
2023/09/26 05:24:56;;;;;;;;;;;;;;;26.41;52.01;99857.55;67868;1276;1016513;-65
2023/09/26 05:27:58;;;;;;;33.40;15.80;;;;;;;26.47;52.08;99859.39;67849;1276;1016430;-64
2023/09/26 05:31:01;;;;;;;36.30;15.60;;;;;;;26.54;51.79;99855.91;67887;1276;1016340;-64
2023/09/26 05:34:03;;;;;;;;;;;;;;;26.61;51.73;99860.42;67876;1276;1019556;-65
2023/09/26 05:37:06;;;;;;;;;;;;;;;26.56;51.80;99860.11;67831;1276;1018859;-64
2023/09/26 05:40:09;;;;;;;32.60;15.20;;;;;;;26.52;51.83;99861.52;67817;1276;1016371;-66
2023/09/26 05:43:11;;;;;;;31.80;14.30;;;;;;;26.55;51.59;99861.38;67871;1276;1016482;-66
2023/09/26 05:46:14;;;;;;;31.00;15.00;;;;;;;26.58;51.59;99864.02;67883;1276;1017583;-64
2023/09/26 05:49:16;;;;;;;;;;;;;;;26.59;51.56;99863.79;67870;1276;1016478;-65
2023/09/26 05:52:20;;;;;;;31.60;15.00;;;;;;;26.58;51.62;99867.44;67844;1276;1016097;-65
2023/09/26 05:55:22;;;;;;;34.00;15.70;;;;;;;26.49;51.50;99864.17;67825;1276;1016033;-64
2023/09/26 05:58:24;;;;;;;;;;;;;;;26.28;51.99;99869.88;67862;1276;1016594;-64
2023/09/26 06:01:27;;;;;;;34.20;15.40;;;;;;;26.31;52.05;99866.83;67859;1276;1016292;-64
2023/09/26 06:04:29;;;;;;;;;;;;;;;26.28;52.15;99867.42;67855;1276;1016305;-65
2023/09/26 06:07:32;;;;;;;33.50;15.40;;;;;;;26.24;52.21;99867.69;67904;1276;1016969;-64
2023/09/26 06:10:34;;;;;;;33.90;15.60;;;;;;;26.24;52.23;99870.86;67871;1276;1015988;-65
2023/09/26 06:13:38;;;;;;;;;;;;;;;26.28;52.23;99870.11;67854;1276;1016269;-64
2023/09/26 06:16:40;;;;;;;34.50;16.00;;;;;;;26.31;52.19;99869.41;67863;1276;1016370;-66
2023/09/26 06:19:45;;;;;;;;;;;;;;;26.27;52.12;99868.91;67863;1276;1016528;-64
2023/09/26 06:22:48;;;;;;;32.40;14.40;;;;;;;26.18;52.22;99868.48;67873;1276;1016486;-65
2023/09/26 06:25:50;;;;;;;;;;;;;;;26.24;52.14;99866.55;67890;1276;1016430;-65
2023/09/26 06:28:52;;;;;;;35.30;15.50;;;;;;;26.39;51.85;99863.71;67829;1276;1016496;-66
2023/09/26 06:31:55;;;;;;;;;;;;;;;26.51;51.64;99862.52;67858;1276;1016072;-64
2023/09/26 06:34:57;;;;;;;35.50;15.60;;;;;;;26.45;51.87;99861.41;67879;1276;1016956;-64
2023/09/26 06:37:59;;;;;;;36.10;16.40;;;;;;;26.62;51.59;99863.75;67891;1276;1016417;-64
2023/09/26 06:41:02;;;;;;;34.20;15.40;;;;;;;26.61;51.43;99862.44;67911;1262;1016403;-64
2023/09/26 06:44:05;;;;;;;35.90;16.50;;;;;;;26.46;51.63;99865.20;67839;1276;1018587;-64
2023/09/26 06:47:07;;;;;;;;;;;;;;;26.35;51.79;99865.20;67835;1276;1016352;-64
2023/09/26 06:50:12;;;;;;;34.20;16.60;;;;;;;26.37;51.77;99861.20;67867;1276;1016531;-64
2023/09/26 06:53:14;;;;;;;31.80;15.70;;;;;;;26.41;51.81;99862.86;67865;1276;1016010;-65
2023/09/26 06:56:17;;;;;;;;;;;;;;;26.61;51.57;99865.95;67870;1276;1016653;-64
2023/09/26 06:59:20;;;;;;;32.60;15.40;;;;;;;26.66;51.62;99865.02;67863;1276;1016787;-66
2023/09/26 07:02:23;;;;;;;31.90;14.70;;;;;;;26.66;51.48;99867.11;67872;1276;1016888;-65
2023/09/26 07:05:25;;;;;;;;;;;;;;;26.71;51.49;99865.23;67838;1276;1016506;-64
2023/09/26 07:08:28;;;;;;;33.90;15.20;;;;;;;26.68;51.39;99864.77;67861;1276;1016143;-65
2023/09/26 07:11:31;;;;;;;33.50;14.30;;;;;;;26.70;51.66;99867.02;67876;1276;1016207;-66
2023/09/26 07:14:35;;;;;;;;;;;;;;;26.79;51.42;99873.95;67884;1276;1016297;-67
2023/09/26 07:17:37;;;;;;;31.50;13.80;;;;;;;26.85;51.42;99871.73;67832;1276;1018695;-65
2023/09/26 07:20:40;;;;;;;;;;;;;;;26.87;51.19;99872.11;67896;1276;1016130;-67
2023/09/26 07:23:42;;;;;;;33.80;15.00;;;;;;;26.91;51.38;99871.90;67889;1276;1016313;-67
2023/09/26 07:26:45;;;;;;;;;;;;;;;26.88;51.41;99873.83;67897;1276;1016408;-63
2023/09/26 07:29:47;;;;;;;;;;;;;;;26.96;51.47;99875.85;67857;1276;1016162;-64
2023/09/26 07:32:50;;;;;;;36.90;14.30;;;;;;;26.93;51.30;99874.71;67842;1276;1016491;-64
2023/09/26 07:35:52;;;;;;;;;;;;;;;26.98;51.22;99877.17;67888;1276;1016344;-64
2023/09/26 07:38:55;;;;;;;32.80;13.50;;;;;;;27.05;51.24;99874.29;67840;1276;1016430;-64
2023/09/26 07:41:57;;;;;;;;;;;;;;;27.16;51.17;99875.65;67851;1276;1018967;-66
2023/09/26 07:44:59;;;;;;;31.40;14.10;;;;;;;27.32;50.72;99876.89;67848;1276;1016176;-64
2023/09/26 07:48:02;;;;;;;;;;;;;;;27.38;50.52;99877.31;67870;1276;1016471;-64
2023/09/26 07:51:05;;;;;;;33.10;14.10;;;;;;;27.33;50.60;99872.30;67877;1276;1016436;-64
2023/09/26 07:54:08;;;;;;;29.00;13.00;;;;;;;27.37;50.65;99873.52;67867;1276;1016516;-64
2023/09/26 07:57:10;;;;;;;44.70;14.50;;;;;;;27.53;50.34;99874.40;67841;1276;1015943;-65
2023/09/26 08:00:13;;;;;;;;;;;;;;;27.58;50.43;99873.22;67896;1276;1016466;-64
2023/09/26 08:03:16;;;;;;;32.70;13.40;;;;;;;27.73;50.20;99873.44;67857;1276;1016326;-65
2023/09/26 08:06:19;;;;;;;34.00;13.90;;;;;;;27.55;49.67;99871.45;67870;1276;1016403;-64
2023/09/26 08:09:21;;;;;;;32.90;14.30;;;;;;;27.43;50.23;99874.96;67856;1276;1016320;-64
2023/09/26 08:12:23;;;;;;;31.00;13.20;;;;;;;27.45;50.25;99875.08;67855;1276;1016863;-64
2023/09/26 08:15:28;;;;;;;34.60;14.20;;;;;;;27.56;49.98;99873.98;67852;1276;1016189;-64
2023/09/26 08:18:30;;;;;;;31.70;14.10;;;;;;;27.76;49.63;99877.77;67895;1276;1019494;-64
2023/09/26 08:21:33;;;;;;;31.50;14.40;;;;;;;27.87;49.20;99878.27;67872;1276;1016454;-64
2023/09/26 08:24:35;;;;;;;34.00;14.90;;;;;;;27.73;49.47;99879.27;67900;1276;1017262;-64
2023/09/26 08:27:37;;;;;;;34.30;14.80;;;;;;;27.69;49.74;99882.70;67892;1276;1016665;-65
2023/09/26 08:30:40;;;;;;;36.10;15.70;;;;;;;27.79;49.65;99883.38;67833;1276;1016474;-65
2023/09/26 08:33:43;;;;;;;32.60;14.20;;;;;;;27.87;49.41;99886.08;67876;1276;1016508;-64
2023/09/26 08:36:46;;;;;;;35.30;15.10;;;;;;;27.86;49.35;99887.60;67874;1276;1016361;-64
2023/09/26 08:39:50;;;;;;;31.30;14.60;;;;;;;27.82;49.60;99886.98;67908;1276;1016488;-65
2023/09/26 08:42:52;;;;;;;36.60;15.00;;;;;;;27.90;49.59;99881.08;67910;1276;1016527;-65
2023/09/26 08:45:55;;;;;;;31.30;14.90;;;;;;;27.83;49.26;99881.75;67908;1276;1016444;-66
2023/09/26 08:48:57;;;;;;;33.10;15.10;;;;;;;27.86;49.48;99879.52;67904;1276;1016172;-64
2023/09/26 08:51:59;;;;;;;33.30;15.20;;;;;;;28.26;48.43;99874.04;67875;1276;1016427;-64
2023/09/26 08:55:02;;;;;;;;;;;;;;;28.31;48.70;99873.55;67806;1276;1016136;-64
2023/09/26 08:58:04;;;;;;;;;;;;;;;28.38;48.63;99875.37;67853;1276;1016133;-64
2023/09/26 09:01:06;;;;;;;36.50;16.80;;;;;;;28.44;48.57;99877.02;67870;1276;1017880;-66
2023/09/26 09:04:10;;;;;;;38.30;16.30;;;;;;;28.27;48.83;99870.80;67899;1276;1016452;-64
2023/09/26 09:07:12;;;;;;;55.70;18.90;;;;;;;28.21;48.69;99871.05;67884;1276;1016887;-65
2023/09/26 09:10:16;;;;;;;32.10;14.40;;;;;;;28.17;48.89;99870.86;67759;1276;1158641;-64
2023/09/26 09:13:19;;;;;;;35.30;15.10;;;;;;;28.22;49.14;99873.48;67837;1276;1016616;-65
2023/09/26 09:16:21;;;;;;;34.90;14.70;;;;;;;28.41;49.04;99871.05;67865;1276;1015590;-64
2023/09/26 09:19:23;;;;;;;37.60;16.00;;;;;;;28.55;48.45;99863.94;67906;1276;1016479;-64
2023/09/26 09:22:26;;;;;;;36.80;14.60;;;;;;;28.64;48.61;99871.14;67923;1276;1016346;-64
2023/09/26 09:25:28;;;;;;;55.60;18.50;;;;;;;28.79;48.26;99865.57;67900;1276;1016388;-64
2023/09/26 09:28:31;;;;;;;65.60;21.10;;;;;;;28.91;48.29;99868.80;67908;1276;1016196;-64
2023/09/26 09:31:34;;;;;;;35.20;17.30;;;;;;;29.05;48.17;99871.14;67911;1276;1015835;-64
2023/09/26 09:34:36;;;;;;;30.00;13.30;;;;;;;29.10;47.42;99869.92;67908;1276;1016295;-63
2023/09/26 09:37:38;;;;;;;31.10;14.10;;;;;;;28.96;47.69;99873.27;67859;1276;1016025;-64
2023/09/26 09:40:41;;;;;;;28.10;12.40;;;;;;;28.98;47.79;99871.73;67858;1276;1015843;-66
2023/09/26 09:43:43;;;;;;;28.90;13.00;;;;;;;28.97;47.76;99873.70;67866;1276;1015728;-67
2023/09/26 09:46:45;;;;;;;31.00;12.60;;;;;;;29.03;47.89;99869.83;67899;1276;1016509;-66
2023/09/26 09:49:48;;;;;;;31.10;13.30;;;;;;;29.15;48.08;99868.94;67908;1276;1016394;-64
2023/09/26 09:52:51;;;;;;;34.30;14.10;;;;;;;29.27;47.60;99870.42;67901;1276;1017944;-66
2023/09/26 09:55:53;;;;;;;33.30;13.50;;;;;;;29.38;47.58;99865.11;67847;1276;1017914;-64
2023/09/26 09:58:56;;;;;;;30.10;13.20;;;;;;;29.35;47.39;99864.36;67848;1276;1016426;-65
2023/09/26 10:01:58;;;;;;;32.90;13.20;;;;;;;29.44;47.52;99864.89;67926;1276;1016465;-64
2023/09/26 10:05:00;;;;;;;34.00;13.10;;;;;;;29.58;47.16;99864.23;67920;1276;1016207;-64
2023/09/26 10:08:03;;;;;;;29.50;12.50;;;;;;;29.84;46.99;99864.12;67896;1276;1016475;-64
2023/09/26 10:11:06;;;;;;;33.70;13.90;;;;;;;30.02;46.83;99858.26;67882;1276;1016854;-63
2023/09/26 10:14:09;;;;;;;28.30;12.50;;;;;;;30.16;46.29;99856.99;67895;1276;1016519;-65
2023/09/26 10:17:11;;;;;;;31.40;13.90;;;;;;;30.38;46.21;99853.29;67889;1276;1016453;-65
2023/09/26 10:20:14;;;;;;;32.20;12.90;;;;;;;30.66;45.74;99852.52;67884;1276;1016243;-65
2023/09/26 10:23:18;;;;;;;31.20;13.20;;;;;;;30.97;45.49;99841.51;67909;1276;1016489;-63
2023/09/26 10:26:21;;;;;;;25.10;11.70;;;;;;;31.22;45.37;99841.06;67910;1276;1018370;-64
2023/09/26 10:29:23;;;;;;;27.50;11.60;;;;;;;31.61;44.64;99843.09;67860;1276;1016195;-64
2023/09/26 10:32:26;;;;;;;25.60;11.80;;;;;;;31.84;44.29;99843.33;67882;1276;1018740;-63
2023/09/26 10:35:30;;;;;;;27.80;11.50;;;;;;;32.18;44.13;99832.30;67900;1276;1016298;-64
2023/09/26 10:38:33;;;;;;;28.00;12.40;;;;;;;32.57;43.44;99830.20;67897;1276;1016479;-64
2023/09/26 10:41:35;;;;;;;26.90;10.90;;;;;;;32.74;43.21;99830.86;67906;1276;1016505;-64
2023/09/26 10:44:38;;;;;;;29.30;11.90;;;;;;;33.08;43.03;99828.02;67894;1276;1016408;-64
2023/09/26 10:47:40;;;;;;;30.00;11.60;;;;;;;33.19;42.53;99828.84;67902;1276;1017972;-64
2023/09/26 10:50:42;;;;;;;27.20;11.30;;;;;;;33.17;42.37;99825.09;67888;1276;1016433;-64
2023/09/26 10:53:45;;;;;;;26.90;10.60;;;;;;;33.08;42.36;99818.89;67859;1276;1016149;-65
2023/09/26 10:56:48;;;;;;;25.60;11.00;;;;;;;33.32;42.26;99818.48;67902;1276;1016300;-64
2023/09/26 10:59:50;;;;;;;28.50;11.10;;;;;;;33.37;41.91;99819.20;67895;1276;1016316;-66
2023/09/26 11:02:53;;;;;;;28.40;10.80;;;;;;;33.61;41.51;99817.67;67916;1276;1018182;-64
2023/09/26 11:05:55;;;;;;;27.60;10.80;;;;;;;33.69;41.03;99819.33;67857;1276;1016128;-65
2023/09/26 11:08:58;;;;;;;25.70;10.90;;;;;;;33.81;40.86;99819.64;67865;1276;1016492;-65
2023/09/26 11:12:00;;;;;;;28.40;11.70;;;;;;;33.94;40.74;99816.62;67883;1276;1016420;-64
2023/09/26 11:15:03;;;;;;;26.00;10.70;;;;;;;34.06;40.86;99819.87;67909;1276;1015778;-66
2023/09/26 11:18:06;;;;;;;25.90;11.60;;;;;;;34.16;40.32;99816.64;67887;1276;1016429;-63
2023/09/26 11:21:08;;;;;;;28.60;11.70;;;;;;;34.16;40.69;99810.02;67942;1276;1016446;-64
2023/09/26 11:24:10;;;;;;;25.50;11.20;;;;;;;34.23;40.69;99815.83;67917;1276;1016204;-64
2023/09/26 11:27:13;;;;;;;26.40;11.30;;;;;;;34.41;40.19;99813.30;67950;1276;1017260;-64
2023/09/26 11:30:17;;;;;;;26.00;11.60;;;;;;;34.70;40.16;99810.55;67855;1276;1017199;-64
2023/09/26 11:33:19;;;;;;;27.00;11.40;;;;;;;34.98;39.73;99809.83;67911;1276;1016464;-65
2023/09/26 11:36:22;;;;;;;25.40;10.80;;;;;;;35.10;39.90;99806.23;67885;1276;1016407;-65
2023/09/26 11:39:24;;;;;;;26.50;11.50;;;;;;;35.58;38.62;99806.17;67914;1276;1016291;-64
2023/09/26 11:42:26;;;;;;;26.90;11.10;;;;;;;35.27;37.63;99799.70;67938;1276;1016113;-64
2023/09/26 11:45:29;;;;;;;25.80;11.20;;;;;;;35.17;38.88;99800.90;67923;1276;1016473;-65
2023/09/26 11:48:31;;;;;;;26.10;11.60;;;;;;;35.20;38.76;99796.25;67859;1276;1016015;-64
2023/09/26 11:51:33;;;;;;;26.20;11.60;;;;;;;35.14;38.50;99801.27;67857;1276;1016680;-65
2023/09/26 11:54:36;;;;;;;27.80;11.70;;;;;;;35.20;38.59;99798.21;67854;1276;1016245;-64
2023/09/26 11:57:38;;;;;;;26.70;11.80;;;;;;;35.30;38.49;99799.09;67927;1276;1016427;-64
2023/09/26 12:00:41;;;;;;;28.40;11.90;;;;;;;35.28;38.56;99799.53;67917;1276;1016466;-64
2023/09/26 12:03:43;;;;;;;27.90;12.90;;;;;;;35.28;38.70;99795.98;67893;1276;1016459;-64
2023/09/26 12:06:45;;;;;;;26.80;12.50;;;;;;;35.38;38.18;99795.70;67907;1276;1016264;-64
2023/09/26 12:09:48;;;;;;;28.10;11.70;;;;;;;35.37;38.00;99790.27;67881;1276;1018820;-65
2023/09/26 12:12:50;;;;;;;27.20;11.70;;;;;;;35.38;37.86;99787.20;67910;1253;1016357;-64
2023/09/26 12:15:52;;;;;;;28.50;12.40;;;;;;;35.25;37.84;99781.16;67914;1276;1016611;-64
2023/09/26 12:18:55;;;;;;;25.20;11.50;;;;;;;35.40;38.13;99783.20;67900;1276;1018327;-64
2023/09/26 12:21:57;;;;;;;26.00;11.40;;;;;;;35.40;37.56;99784.97;67924;1276;1018759;-66
2023/09/26 12:24:59;;;;;;;26.50;11.60;;;;;;;35.45;37.70;99783.94;67877;1276;1016802;-64
2023/09/26 12:28:03;;;;;;;28.60;12.50;;;;;;;35.61;37.42;99781.83;67871;1276;1016601;-64
2023/09/26 12:31:05;;;;;;;26.60;12.30;;;;;;;35.77;37.56;99781.19;67928;1276;1016206;-63
2023/09/26 12:34:08;;;;;;;28.90;12.20;;;;;;;35.96;37.40;99781.30;67900;1276;1016494;-63
2023/09/26 12:37:10;;;;;;;27.70;11.70;;;;;;;36.11;37.28;99778.26;67882;1276;1016472;-64
2023/09/26 12:40:13;;;;;;;25.50;11.50;;;;;;;36.13;36.93;99775.24;67890;1276;1018222;-64
2023/09/26 12:43:15;;;;;;;28.40;11.90;;;;;;;36.16;36.76;99771.77;67943;1276;1016444;-64
2023/09/26 12:46:18;;;;;;;26.70;11.50;;;;;;;36.18;36.58;99771.74;67926;1276;1016527;-64
2023/09/26 12:49:20;;;;;;;25.00;10.90;;;;;;;36.19;36.63;99770.46;67891;1276;1016501;-65
2023/09/26 12:52:26;;;;;;;27.10;11.50;;;;;;;36.25;36.48;99765.67;67846;1276;1019884;-65
2023/09/26 12:55:29;;;;;;;25.40;11.00;;;;;;;36.84;35.83;99764.07;67900;1276;1016665;-65
2023/09/26 12:58:48;;;;;;;26.90;11.60;;;;;;;36.94;35.51;99756.90;67933;1276;1016045;-65
2023/09/26 13:01:50;;;;;;;27.20;11.20;;;;;;;36.92;35.53;99760.02;67893;1276;1015937;-65
2023/09/26 13:04:53;;;;;;;28.30;11.10;;;;;;;36.89;35.40;99756.86;67878;1276;1016531;-65
2023/09/26 13:07:55;;;;;;;26.30;11.60;;;;;;;36.70;35.56;99755.81;67922;1276;1016140;-64
2023/09/26 13:10:59;;;;;;;25.90;11.70;;;;;;;36.44;35.89;99753.12;67947;1276;1016117;-65
2023/09/26 13:14:02;;;;;;;25.90;11.70;;;;;;;36.50;36.22;99752.23;67888;1276;1016285;-65
2023/09/26 13:17:06;;;;;;;30.00;12.50;;;;;;;36.53;36.47;99750.83;67891;1276;1016498;-66
2023/09/26 13:20:10;;;;;;;29.00;12.20;;;;;;;36.71;36.37;99757.48;67918;1276;1016436;-65
2023/09/26 13:23:13;;;;;;;26.10;11.80;;;;;;;36.82;35.99;99756.27;67881;1276;1016422;-65
2023/09/26 13:26:15;;;;;;;27.40;12.60;;;;;;;36.94;36.07;99756.40;67898;1276;1016892;-65
2023/09/26 13:29:17;;;;;;;27.10;11.90;;;;;;;36.96;35.84;99754.15;67903;1276;1016512;-64
2023/09/26 13:32:20;;;;;;;24.40;11.50;;;;;;;36.99;36.02;99756.64;67917;1276;1016281;-66
2023/09/26 13:35:23;;;;;;;26.30;12.10;;;;;;;37.12;35.86;99754.54;67902;1276;1016472;-65
2023/09/26 13:38:26;;;;;;;26.30;11.90;;;;;;;36.98;35.83;99753.35;67913;1276;1016396;-65
2023/09/26 13:41:29;;;;;;;26.80;11.60;;;;;;;36.82;35.77;99749.39;67902;1276;1016200;-65
2023/09/26 13:44:31;;;;;;;27.20;12.00;;;;;;;36.76;35.65;99747.86;67879;1276;1016236;-66
2023/09/26 13:47:33;;;;;;;27.50;12.20;;;;;;;36.81;35.69;99744.30;67910;1276;1016375;-65
2023/09/26 13:50:36;;;;;;;29.30;12.80;;;;;;;36.78;35.60;99746.65;67892;1276;1017172;-66
2023/09/26 13:53:39;;;;;;;26.80;12.40;;;;;;;36.69;35.79;99743.99;67917;1276;1016066;-64
2023/09/26 13:56:41;;;;;;;28.40;12.70;;;;;;;36.38;35.51;99740.92;67864;1276;1016535;-65
2023/09/26 13:59:44;;;;;;;28.70;12.30;;;;;;;36.29;36.15;99740.05;67868;1276;1016465;-65
2023/09/26 14:02:46;;;;;;;28.50;12.20;;;;;;;36.32;35.86;99740.23;67917;1276;1016350;-65